Connor, United Kingdom
Current Conditions -  °F | °C
As of 7:50 AM on Saturday 25 Oct 2014 (Local Time) from EGAA Reporting Station
Light Rain Light Rain  
Wind Chill: 50°   Ceiling: 1300
Heat Index: 50°   Visibility: 6mi
Dew Point: 46°   Wind: 13mph
Humidity: 87%   Direction: 220°SW
Pressure: 29.74"   Gusts: NA
Location:  54.8°N, 6.2°W
Report Text: EGAA 250650Z 22011KT 9999 -RA SCT009 BKN013 10/08 Q1007 REDZ
Loading
Personal Weather Stations






























Interactive Weather Map
Tropical Storm Tracking
New forecast layout! Learn more

10-Day Weather Forecast

Advertisements
Track Severe Weather on mobile